Time;durP1;ratioP1;P1;durP2;ratioP2;P2;SDS_P1;SDS_P2;PMS_P1;PMS_P2;Temp;Humidity;BMP_temperature;BMP_pressure;BME280_temperature;BME280_humidity;BME280_pressure;Samples;Min_cycle;Max_cycle;Signal;HPM_P1;HPM_P2
2022/01/09 00:00:56;;;;;;;9.67;9.37;;;0.90;99.90;;;;;;5079355;28;20296;-79
2022/01/09 00:03:27;;;;;;;9.70;9.40;;;0.90;99.90;;;;;;5078753;28;20288;-79
2022/01/09 00:05:55;;;;;;;9.50;9.20;;;1.00;99.90;;;;;;5079688;28;20218;-80
2022/01/09 00:08:24;;;;;;;9.60;9.30;;;1.00;99.90;;;;;;5079505;28;20318;-79
2022/01/09 00:10:55;;;;;;;9.80;9.50;;;1.00;99.90;;;;;;5081338;28;20249;-78
2022/01/09 00:13:23;;;;;;;9.57;9.27;;;1.00;99.90;;;;;;5082392;28;20230;-80
2022/01/09 00:15:52;;;;;;;9.80;9.50;;;1.10;99.90;;;;;;5081835;28;20253;-78
2022/01/09 00:18:23;;;;;;;9.70;9.40;;;1.00;99.90;;;;;;5081962;28;20242;-80
2022/01/09 00:21:06;;;;;;;9.70;9.40;;;1.00;99.90;;;;;;5083129;28;20252;-79
2022/01/09 00:23:39;;;;;;;9.77;9.47;;;1.10;99.90;;;;;;5082453;28;20237;-79
2022/01/09 00:26:09;;;;;;;9.70;9.40;;;1.10;99.90;;;;;;5083073;28;20230;-79
2022/01/09 00:28:38;;;;;;;9.80;9.50;;;1.10;99.90;;;;;;5081133;28;20303;-80
2022/01/09 00:31:07;;;;;;;9.83;9.53;;;1.10;99.90;;;;;;5081409;28;20226;-79
2022/01/09 00:33:36;;;;;;;9.77;9.47;;;1.00;99.90;;;;;;5082101;28;20292;-79
2022/01/09 00:36:06;;;;;;;9.60;9.30;;;1.00;99.90;;;;;;5082986;28;20291;-80
2022/01/09 00:38:33;;;;;;;9.60;9.30;;;1.00;99.90;;;;;;5081864;28;20672;-79
2022/01/09 00:41:04;;;;;;;9.70;9.40;;;1.10;99.90;;;;;;5081598;28;20226;-79
2022/01/09 00:43:33;;;;;;;9.50;9.20;;;1.10;99.90;;;;;;5081580;28;20234;-78
2022/01/09 00:46:01;;;;;;;9.53;9.23;;;1.10;99.90;;;;;;5084963;28;20227;-80
2022/01/09 00:48:34;;;;;;;9.80;9.50;;;1.10;99.90;;;;;;5082806;28;20252;-79
2022/01/09 00:51:02;;;;;;;9.50;9.20;;;1.10;99.90;;;;;;5081756;28;20303;-79
2022/01/09 00:53:34;;;;;;;9.60;9.30;;;1.10;99.90;;;;;;5082924;28;20222;-80
2022/01/09 00:56:02;;;;;;;9.67;9.37;;;1.10;99.90;;;;;;5091737;28;20289;-78
2022/01/09 00:58:31;;;;;;;9.60;9.30;;;1.10;99.90;;;;;;5089309;28;20242;-79
2022/01/09 01:00:59;;;;;;;9.53;9.23;;;1.00;99.90;;;;;;5130710;22;20229;-83
2022/01/09 01:03:30;;;;;;;9.23;8.93;;;1.00;99.90;;;;;;5103898;28;20220;-83
2022/01/09 01:05:58;;;;;;;9.40;9.10;;;1.10;99.90;;;;;;5102260;28;20255;-83
2022/01/09 01:08:26;;;;;;;9.30;9.00;;;1.10;99.90;;;;;;5108688;28;20237;-83
2022/01/09 01:10:55;;;;;;;9.80;9.50;;;1.10;99.90;;;;;;5122494;28;20236;-82
2022/01/09 01:13:24;;;;;;;9.27;8.97;;;1.00;99.90;;;;;;5127445;28;20225;-82
2022/01/09 01:15:52;;;;;;;9.47;9.17;;;1.00;99.90;;;;;;5125005;27;20221;-82
2022/01/09 01:18:19;;;;;;;9.50;9.20;;;1.00;99.90;;;;;;5123831;28;20243;-83
2022/01/09 01:20:47;;;;;;;9.40;9.10;;;1.00;99.90;;;;;;5122798;28;20243;-82
2022/01/09 01:23:15;;;;;;;8.90;8.60;;;1.00;99.90;;;;;;5122867;28;20232;-83
2022/01/09 01:25:50;;;;;;;9.17;8.87;;;0.90;99.90;;;;;;5127847;28;20229;-81
2022/01/09 01:28:20;;;;;;;9.00;8.70;;;0.80;99.90;;;;;;5126112;27;20264;-83
2022/01/09 01:30:48;;;;;;;9.07;8.77;;;0.80;99.90;;;;;;5123892;28;20764;-82
2022/01/09 01:33:16;;;;;;;8.80;8.50;;;0.80;99.90;;;;;;5122960;27;20217;-83
2022/01/09 01:35:43;;;;;;;8.80;8.50;;;0.80;99.90;;;;;;5122954;28;20231;-82
2022/01/09 01:38:12;;;;;;;8.90;8.60;;;0.80;99.90;;;;;;5122175;28;20228;-83
2022/01/09 01:40:42;;;;;;;9.00;8.70;;;0.80;99.90;;;;;;5122644;27;20306;-83
2022/01/09 01:43:10;;;;;;;9.10;8.80;;;0.80;99.90;;;;;;5122417;28;20317;-83
2022/01/09 01:45:44;;;;;;;9.07;8.77;;;0.80;99.90;;;;;;5123055;27;20224;-83
2022/01/09 01:48:11;;;;;;;8.87;8.57;;;0.80;99.90;;;;;;5142157;27;20251;-80
2022/01/09 01:50:41;;;;;;;8.73;8.43;;;0.80;99.90;;;;;;5141644;27;20254;-82
2022/01/09 01:53:14;;;;;;;8.90;8.60;;;0.80;99.90;;;;;;5137946;27;20224;-84
2022/01/09 01:55:44;;;;;;;9.20;8.90;;;0.80;99.90;;;;;;5124609;28;20256;-84
2022/01/09 01:58:13;;;;;;;8.70;8.40;;;0.80;99.90;;;;;;5122009;28;20274;-83
2022/01/09 02:00:43;;;;;;;9.10;8.80;;;0.80;99.90;;;;;;5120894;28;20247;-83
2022/01/09 02:03:11;;;;;;;9.23;8.93;;;0.80;99.90;;;;;;5121262;28;20232;-83
2022/01/09 02:05:40;;;;;;;9.10;8.80;;;0.80;99.90;;;;;;5121167;27;20290;-83
2022/01/09 02:08:09;;;;;;;9.30;9.00;;;0.80;99.90;;;;;;5121914;27;20232;-84
2022/01/09 02:10:39;;;;;;;9.20;8.90;;;0.80;99.90;;;;;;5121260;28;20225;-83
2022/01/09 02:13:07;;;;;;;9.20;8.90;;;0.80;99.90;;;;;;5121313;28;20263;-82
2022/01/09 02:15:37;;;;;;;8.87;8.57;;;0.80;99.90;;;;;;5121615;28;20232;-83
2022/01/09 02:18:14;;;;;;;9.07;8.77;;;0.80;99.90;;;;;;5121073;27;20233;-82
2022/01/09 02:20:44;;;;;;;8.90;8.60;;;0.80;99.90;;;;;;5120435;28;20680;-82
2022/01/09 02:23:14;;;;;;;8.50;8.30;;;0.80;99.90;;;;;;5120389;27;20228;-82
2022/01/09 02:25:43;;;;;;;8.67;8.37;;;0.70;99.90;;;;;;5129467;27;20229;-83
2022/01/09 02:28:14;;;;;;;8.40;8.20;;;0.70;99.90;;;;;;5120090;27;20234;-83
2022/01/09 02:30:43;;;;;;;8.73;8.43;;;0.70;99.90;;;;;;5119921;27;20270;-82
2022/01/09 02:33:14;;;;;;;8.87;8.57;;;0.70;99.90;;;;;;5119860;27;20229;-83
2022/01/09 02:35:44;;;;;;;8.20;8.00;;;0.60;99.90;;;;;;5120099;27;20229;-82
2022/01/09 02:38:11;;;;;;;8.40;8.20;;;0.60;99.90;;;;;;5120275;27;20232;-81
2022/01/09 02:40:40;;;;;;;8.20;8.00;;;0.60;99.90;;;;;;5130532;27;20220;-83
2022/01/09 02:43:10;;;;;;;8.30;8.10;;;0.70;99.90;;;;;;5130378;27;20281;-82
2022/01/09 02:45:38;;;;;;;8.20;8.00;;;0.70;99.90;;;;;;5123684;27;20233;-83
2022/01/09 02:48:09;;;;;;;8.10;7.90;;;0.70;99.90;;;;;;5121741;27;20236;-83
2022/01/09 02:50:41;;;;;;;8.10;7.90;;;0.70;99.90;;;;;;5120362;27;20232;-83
2022/01/09 02:53:14;;;;;;;8.10;7.90;;;0.70;99.90;;;;;;5119530;27;20229;-83
2022/01/09 02:55:44;;;;;;;8.20;8.00;;;0.70;99.90;;;;;;5119245;27;20327;-83
2022/01/09 02:58:12;;;;;;;8.10;7.90;;;0.70;99.90;;;;;;5119827;27;20227;-83
2022/01/09 03:00:44;;;;;;;8.33;8.13;;;0.70;99.90;;;;;;5119110;27;20244;-83
2022/01/09 03:03:14;;;;;;;8.10;7.90;;;0.70;99.90;;;;;;5118900;27;20228;-83
2022/01/09 03:05:44;;;;;;;8.47;8.27;;;0.70;99.90;;;;;;5119232;27;20232;-83
2022/01/09 03:08:14;;;;;;;8.10;7.90;;;0.70;99.90;;;;;;5119427;27;20370;-84
2022/01/09 03:10:42;;;;;;;8.23;8.03;;;0.80;99.90;;;;;;5120053;27;20302;-83
2022/01/09 03:13:11;;;;;;;8.60;8.30;;;0.80;99.90;;;;;;5119310;27;20235;-83
2022/01/09 03:15:40;;;;;;;8.60;8.30;;;0.80;99.90;;;;;;5119076;27;20233;-83
2022/01/09 03:18:10;;;;;;;8.70;8.40;;;0.80;99.90;;;;;;5119820;27;20225;-83
2022/01/09 03:20:40;;;;;;;8.67;8.37;;;0.90;99.90;;;;;;5118081;27;20236;-83
2022/01/09 03:23:09;;;;;;;8.57;8.27;;;0.90;99.90;;;;;;5118962;27;20225;-83
2022/01/09 03:25:47;;;;;;;8.50;8.20;;;0.90;99.90;;;;;;5121565;27;20337;-82
2022/01/09 03:28:18;;;;;;;8.70;8.40;;;0.90;99.90;;;;;;5129835;27;20247;-82
2022/01/09 03:30:48;;;;;;;8.60;8.30;;;0.80;99.90;;;;;;5139829;27;20232;-81
2022/01/09 03:33:15;;;;;;;8.63;8.33;;;0.90;99.90;;;;;;5133340;27;20282;-83
2022/01/09 03:35:43;;;;;;;8.80;8.50;;;0.90;99.90;;;;;;5120274;27;20236;-82
2022/01/09 03:38:12;;;;;;;8.30;8.10;;;0.90;99.90;;;;;;5120357;27;20298;-82
2022/01/09 03:40:41;;;;;;;8.60;8.30;;;1.00;99.90;;;;;;5120502;27;20252;-82
2022/01/09 03:43:09;;;;;;;8.67;8.37;;;1.00;99.90;;;;;;5120813;27;20228;-82
2022/01/09 03:45:37;;;;;;;8.73;8.43;;;1.00;99.90;;;;;;5119479;27;20771;-82
2022/01/09 03:48:05;;;;;;;8.90;8.60;;;1.00;99.90;;;;;;5119862;27;20290;-82
2022/01/09 03:50:35;;;;;;;8.90;8.60;;;1.00;99.90;;;;;;5118520;27;20240;-82
2022/01/09 03:53:04;;;;;;;9.03;8.73;;;1.10;99.90;;;;;;5118362;27;20225;-83
2022/01/09 03:55:32;;;;;;;8.83;8.53;;;1.10;99.90;;;;;;5138193;27;20209;-81
2022/01/09 03:58:02;;;;;;;8.90;8.60;;;1.20;99.90;;;;;;5139976;27;20243;-81
2022/01/09 04:00:29;;;;;;;9.00;8.70;;;1.20;99.90;;;;;;5138789;27;20224;-80
2022/01/09 04:02:57;;;;;;;8.90;8.60;;;1.20;99.90;;;;;;5126571;27;20224;-81
2022/01/09 04:05:25;;;;;;;8.90;8.60;;;1.10;99.90;;;;;;5120663;27;20225;-81
2022/01/09 04:07:53;;;;;;;8.93;8.63;;;1.20;99.90;;;;;;5119946;27;20240;-82
2022/01/09 04:10:25;;;;;;;9.00;8.70;;;1.20;99.90;;;;;;5124991;27;20220;-81
2022/01/09 04:12:58;;;;;;;9.10;8.80;;;1.20;99.90;;;;;;5123675;27;20263;-82
2022/01/09 04:15:29;;;;;;;8.77;8.47;;;1.20;99.90;;;;;;5121722;28;20239;-82
2022/01/09 04:17:58;;;;;;;8.90;8.60;;;1.30;99.90;;;;;;5121105;27;20776;-83
2022/01/09 04:20:28;;;;;;;8.90;8.60;;;1.30;99.90;;;;;;5124501;27;20232;-81
2022/01/09 04:22:57;;;;;;;9.13;8.83;;;1.30;99.90;;;;;;5126970;27;20225;-82
2022/01/09 04:25:25;;;;;;;9.10;8.80;;;1.30;99.90;;;;;;5118419;27;20233;-83
2022/01/09 04:27:54;;;;;;;8.97;8.67;;;1.30;99.90;;;;;;5117698;27;20233;-83
2022/01/09 04:30:22;;;;;;;8.87;8.57;;;1.40;99.90;;;;;;5118211;27;20290;-82
2022/01/09 04:32:52;;;;;;;9.10;8.80;;;1.30;99.90;;;;;;5118767;27;20235;-82
2022/01/09 04:35:20;;;;;;;9.00;8.70;;;1.40;99.90;;;;;;5119800;27;20237;-81
2022/01/09 04:37:49;;;;;;;9.10;8.80;;;1.40;99.90;;;;;;5119854;27;20232;-82
2022/01/09 04:40:19;;;;;;;9.10;8.80;;;1.50;99.90;;;;;;5119306;27;20302;-82
2022/01/09 04:42:50;;;;;;;9.10;8.80;;;1.50;99.90;;;;;;5119237;27;20249;-82
2022/01/09 04:45:20;;;;;;;9.00;8.70;;;1.60;99.90;;;;;;5120535;27;20266;-81
2022/01/09 04:47:50;;;;;;;9.20;8.90;;;1.60;99.90;;;;;;5120325;27;20311;-81
2022/01/09 04:50:24;;;;;;;8.97;8.67;;;1.60;99.90;;;;;;5119146;27;20225;-83
2022/01/09 04:52:57;;;;;;;9.00;8.70;;;1.60;99.90;;;;;;5118730;27;20224;-82
2022/01/09 04:55:26;;;;;;;9.07;8.77;;;1.60;99.90;;;;;;5119243;27;20243;-82
2022/01/09 04:57:53;;;;;;;9.00;8.70;;;1.60;99.90;;;;;;5121825;27;20282;-83
2022/01/09 05:00:21;;;;;;;9.20;8.90;;;1.70;99.90;;;;;;5121810;27;20297;-82
2022/01/09 05:02:49;;;;;;;9.20;8.90;;;1.70;99.90;;;;;;5121531;27;20225;-83
2022/01/09 05:05:20;;;;;;;9.07;8.77;;;1.80;99.90;;;;;;5122724;27;21015;-83
2022/01/09 05:07:48;;;;;;;9.20;8.90;;;1.80;99.90;;;;;;5122993;27;20236;-83
2022/01/09 05:10:16;;;;;;;9.30;9.00;;;1.80;99.90;;;;;;5122938;27;20305;-82
2022/01/09 05:12:45;;;;;;;9.27;8.97;;;1.80;99.90;;;;;;5130679;27;20238;-82
2022/01/09 05:15:15;;;;;;;9.17;8.87;;;1.90;99.90;;;;;;5134201;27;20224;-81
2022/01/09 05:17:47;;;;;;;9.10;8.80;;;1.90;99.90;;;;;;5125771;27;20260;-82
2022/01/09 05:20:15;;;;;;;8.97;8.67;;;2.00;99.90;;;;;;5123037;27;20244;-81
2022/01/09 05:22:45;;;;;;;9.10;8.80;;;2.10;99.90;;;;;;5121758;27;20217;-81
2022/01/09 05:25:13;;;;;;;9.13;8.83;;;2.10;99.90;;;;;;5122139;27;20232;-83
2022/01/09 05:27:43;;;;;;;9.13;8.83;;;2.20;99.90;;;;;;5122331;27;20236;-82
2022/01/09 05:30:13;;;;;;;9.13;8.83;;;2.30;99.90;;;;;;5123547;27;20638;-83
2022/01/09 05:32:43;;;;;;;9.20;8.90;;;2.30;99.90;;;;;;5123084;27;20228;-82
2022/01/09 05:35:12;;;;;;;9.20;8.90;;;2.30;99.90;;;;;;5122725;27;20225;-82
2022/01/09 05:37:40;;;;;;;9.20;8.90;;;2.40;99.90;;;;;;5122876;27;20228;-83
2022/01/09 05:40:11;;;;;;;9.10;8.80;;;2.40;99.90;;;;;;5122680;27;20225;-83
2022/01/09 05:42:39;;;;;;;9.17;8.87;;;2.40;99.90;;;;;;5122459;27;20217;-82
2022/01/09 05:45:11;;;;;;;9.30;9.00;;;2.40;99.90;;;;;;5122594;27;20225;-83
2022/01/09 05:47:39;;;;;;;9.33;9.03;;;2.50;99.90;;;;;;5122655;27;20278;-83
2022/01/09 05:50:08;;;;;;;9.27;8.97;;;2.50;99.90;;;;;;5122532;27;20251;-83
2022/01/09 05:52:38;;;;;;;9.40;9.10;;;2.60;99.90;;;;;;5121943;27;20229;-83
2022/01/09 05:55:12;;;;;;;9.57;9.27;;;2.60;99.90;;;;;;5121928;27;20290;-83
2022/01/09 05:57:39;;;;;;;9.30;9.00;;;2.60;99.90;;;;;;5122951;27;20225;-82
2022/01/09 06:00:09;;;;;;;9.40;9.10;;;2.60;99.90;;;;;;5130686;27;20299;-81
2022/01/09 06:02:37;;;;;;;9.40;9.10;;;2.60;99.90;;;;;;5142081;27;20209;-82
2022/01/09 06:05:07;;;;;;;9.10;8.80;;;2.60;99.90;;;;;;5141730;27;20228;-81
2022/01/09 06:07:35;;;;;;;9.30;9.00;;;2.70;99.90;;;;;;5141004;27;20252;-81
2022/01/09 06:10:03;;;;;;;9.40;9.10;;;2.70;99.90;;;;;;5131542;27;20225;-83
2022/01/09 06:12:42;;;;;;;9.13;8.83;;;2.70;99.90;;;;;;5125573;27;20227;-83
2022/01/09 06:15:11;;;;;;;9.33;9.03;;;2.70;99.90;;;;;;5124142;27;20228;-83
2022/01/09 06:17:39;;;;;;;9.27;8.97;;;2.80;99.90;;;;;;5123764;27;20217;-83
2022/01/09 06:20:11;;;;;;;9.60;9.30;;;2.80;99.90;;;;;;5123068;27;20259;-83
2022/01/09 06:22:39;;;;;;;9.40;9.10;;;2.80;99.90;;;;;;5122253;27;20229;-83
2022/01/09 06:25:08;;;;;;;9.40;9.10;;;2.90;99.90;;;;;;5122409;27;20294;-82
2022/01/09 06:27:39;;;;;;;9.40;9.10;;;3.00;99.90;;;;;;5122088;27;20291;-82
2022/01/09 06:30:09;;;;;;;9.30;9.00;;;3.00;99.90;;;;;;5122800;27;20236;-82
2022/01/09 06:32:37;;;;;;;9.30;9.00;;;3.00;99.90;;;;;;5122116;27;20294;-82
2022/01/09 06:35:07;;;;;;;9.10;8.80;;;3.00;99.90;;;;;;5122507;27;20285;-83
2022/01/09 06:37:36;;;;;;;9.30;9.00;;;3.00;99.90;;;;;;5122281;27;20311;-82
2022/01/09 06:40:06;;;;;;;8.93;8.63;;;3.00;99.90;;;;;;5121754;27;20236;-82
2022/01/09 06:42:34;;;;;;;9.17;8.87;;;3.00;99.90;;;;;;5121789;27;20251;-84
2022/01/09 06:45:04;;;;;;;9.20;8.90;;;3.00;99.90;;;;;;5122126;27;20224;-83
2022/01/09 06:47:32;;;;;;;9.20;8.90;;;3.00;99.90;;;;;;5122118;27;20278;-83
2022/01/09 06:50:00;;;;;;;9.50;9.20;;;3.00;99.90;;;;;;5122183;27;20236;-82
2022/01/09 06:52:28;;;;;;;9.40;9.10;;;3.00;99.90;;;;;;5130889;27;20237;-82
2022/01/09 06:54:56;;;;;;;9.50;9.20;;;3.00;99.90;;;;;;5136337;27;20233;-83
2022/01/09 06:57:25;;;;;;;9.30;9.00;;;3.00;99.90;;;;;;5123661;27;20224;-83
2022/01/09 06:59:53;;;;;;;9.10;8.80;;;3.00;99.90;;;;;;5143517;22;20228;-79
2022/01/09 07:02:22;;;;;;;9.40;9.10;;;2.90;99.90;;;;;;5113187;28;20222;-80
2022/01/09 07:04:50;;;;;;;9.57;9.27;;;2.90;99.90;;;;;;5095023;28;20269;-81
2022/01/09 07:07:17;;;;;;;9.40;9.10;;;2.90;99.90;;;;;;5084674;28;20230;-79
2022/01/09 07:09:45;;;;;;;9.30;9.00;;;2.90;99.90;;;;;;5083133;28;20729;-80
2022/01/09 07:12:12;;;;;;;9.40;9.10;;;3.00;99.90;;;;;;5084013;28;20218;-79
2022/01/09 07:14:42;;;;;;;9.40;9.10;;;3.10;99.90;;;;;;5084283;28;20230;-79
2022/01/09 07:17:11;;;;;;;9.60;9.30;;;3.10;99.90;;;;;;5082611;28;20242;-79
2022/01/09 07:19:50;;;;;;;9.10;8.80;;;3.10;99.90;;;;;;5090811;28;20255;-80
2022/01/09 07:22:19;;;;;;;9.50;9.20;;;3.20;99.90;;;;;;5094499;28;20248;-80
2022/01/09 07:24:48;;;;;;;9.30;9.00;;;3.20;99.90;;;;;;5104006;28;20233;-80
2022/01/09 07:27:20;;;;;;;9.30;9.00;;;3.30;99.90;;;;;;5102957;28;20228;-80
2022/01/09 07:29:49;;;;;;;9.50;9.20;;;3.30;99.90;;;;;;5102113;28;20351;-79
2022/01/09 07:32:18;;;;;;;9.30;9.00;;;3.30;99.90;;;;;;5102367;28;20244;-80
2022/01/09 07:34:57;;;;;;;9.50;9.20;;;3.30;99.90;;;;;;5102624;28;20225;-80
2022/01/09 07:37:30;;;;;;;9.27;8.97;;;3.30;99.90;;;;;;5102990;28;20229;-80
2022/01/09 07:40:04;;;;;;;9.30;9.00;;;3.30;99.90;;;;;;5103268;28;20302;-80
2022/01/09 07:42:32;;;;;;;9.10;8.80;;;3.40;99.90;;;;;;5102604;28;20244;-80
2022/01/09 07:45:06;;;;;;;9.07;8.77;;;3.40;99.90;;;;;;5102729;28;20237;-80
2022/01/09 07:47:34;;;;;;;9.40;9.10;;;3.40;99.90;;;;;;5101639;28;20267;-80
2022/01/09 07:50:05;;;;;;;9.10;8.80;;;3.30;99.90;;;;;;5095536;28;20241;-81
2022/01/09 07:52:34;;;;;;;8.97;8.67;;;3.30;99.90;;;;;;5101711;28;20217;-81
2022/01/09 07:55:01;;;;;;;9.30;9.00;;;3.30;99.90;;;;;;5102369;28;20260;-80
2022/01/09 07:57:31;;;;;;;9.23;8.93;;;3.30;99.90;;;;;;5102748;28;20765;-81
2022/01/09 08:00:02;;;;;;;9.60;9.30;;;3.30;99.90;;;;;;5101557;28;20233;-81
2022/01/09 08:02:30;;;;;;;9.60;9.30;;;3.20;99.90;;;;;;5102335;28;20245;-80
2022/01/09 08:04:59;;;;;;;9.50;9.20;;;3.20;99.90;;;;;;5102436;28;20225;-80
2022/01/09 08:07:31;;;;;;;9.50;9.20;;;3.10;99.90;;;;;;5102388;28;20233;-81
2022/01/09 08:09:58;;;;;;;9.63;9.33;;;3.10;99.90;;;;;;5101330;28;20295;-80
2022/01/09 08:12:28;;;;;;;9.30;9.00;;;3.10;99.90;;;;;;5101428;28;20286;-81
2022/01/09 08:14:57;;;;;;;9.50;9.20;;;3.10;99.90;;;;;;5102522;28;20241;-80
2022/01/09 08:17:26;;;;;;;9.50;9.20;;;3.00;99.90;;;;;;5101687;28;20229;-81
2022/01/09 08:19:55;;;;;;;9.20;8.90;;;3.00;99.90;;;;;;5101762;28;20287;-82
2022/01/09 08:22:28;;;;;;;9.20;8.90;;;3.00;99.90;;;;;;5102108;28;20244;-81
2022/01/09 08:24:57;;;;;;;9.60;9.30;;;3.00;99.90;;;;;;5102342;28;20334;-82
2022/01/09 08:27:26;;;;;;;9.03;8.73;;;2.90;99.90;;;;;;5101749;28;20256;-81
2022/01/09 08:29:53;;;;;;;9.33;9.03;;;2.90;99.90;;;;;;5116426;27;20237;-81
2022/01/09 08:32:22;;;;;;;9.40;9.10;;;2.90;99.90;;;;;;5112924;28;20221;-82
2022/01/09 08:34:53;;;;;;;9.30;9.00;;;2.90;99.90;;;;;;5107117;28;20233;-81
2022/01/09 08:37:23;;;;;;;9.37;9.07;;;2.90;99.90;;;;;;5106318;28;20213;-81
2022/01/09 08:39:51;;;;;;;9.48;9.18;;;3.00;99.90;;;;;;5108128;28;20469;-86
2022/01/09 08:42:30;;;;;;;9.90;9.60;;;3.00;99.90;;;;;;5100517;28;20241;-87
2022/01/09 08:44:58;;;;;;;10.17;9.87;;;3.10;99.90;;;;;;5088876;28;20218;-86
2022/01/09 08:47:29;;;;;;;9.83;9.53;;;3.10;99.90;;;;;;5089024;28;20230;-86
2022/01/09 08:49:58;;;;;;;9.77;9.47;;;3.10;99.90;;;;;;5088750;28;20238;-86
2022/01/09 08:52:28;;;;;;;9.83;9.53;;;3.10;99.90;;;;;;5088508;28;20225;-86
2022/01/09 08:54:56;;;;;;;9.80;9.50;;;3.10;99.90;;;;;;5089184;28;20237;-85
2022/01/09 08:57:35;;;;;;;9.90;9.60;;;3.10;99.90;;;;;;5088592;28;20296;-85
2022/01/09 09:00:06;;;;;;;9.70;9.40;;;3.10;99.90;;;;;;5087438;28;20238;-87
2022/01/09 09:02:34;;;;;;;9.60;9.30;;;3.10;99.90;;;;;;5087120;28;20234;-87
2022/01/09 09:05:03;;;;;;;9.53;9.23;;;3.10;99.90;;;;;;5088491;28;20222;-89
2022/01/09 09:07:32;;;;;;;9.27;8.97;;;3.10;99.90;;;;;;5088332;28;20230;-86
2022/01/09 09:10:04;;;;;;;9.00;8.70;;;3.10;99.90;;;;;;5087210;28;20242;-85
2022/01/09 09:12:41;;;;;;;9.60;9.30;;;3.10;99.90;;;;;;5104259;28;20252;-86
2022/01/09 09:15:10;;;;;;;9.33;9.03;;;3.10;99.90;;;;;;5093266;28;20222;-86
2022/01/09 09:17:39;;;;;;;9.50;9.20;;;3.10;99.90;;;;;;5090535;28;20234;-85
2022/01/09 09:20:08;;;;;;;9.20;8.90;;;3.10;99.90;;;;;;5089698;28;20238;-84
2022/01/09 09:22:38;;;;;;;9.30;9.00;;;3.10;99.90;;;;;;5090460;28;20292;-85
2022/01/09 09:25:07;;;;;;;9.17;8.87;;;3.10;99.90;;;;;;5108832;28;20256;-85
2022/01/09 09:27:41;;;;;;;9.27;8.97;;;3.20;99.90;;;;;;5107339;28;20226;-85
2022/01/09 09:30:10;;;;;;;9.10;8.80;;;3.20;99.90;;;;;;5107803;28;20221;-85
2022/01/09 09:32:38;;;;;;;9.30;9.00;;;3.20;99.90;;;;;;5107671;28;20208;-85
2022/01/09 09:35:07;;;;;;;8.77;8.57;;;3.10;99.90;;;;;;5109366;28;20236;-85
2022/01/09 09:37:36;;;;;;;9.30;9.00;;;3.10;99.90;;;;;;5110082;28;20248;-84
2022/01/09 09:40:05;;;;;;;8.87;8.60;;;3.10;99.90;;;;;;5115025;28;20244;-86
2022/01/09 09:42:37;;;;;;;9.10;8.80;;;3.10;99.90;;;;;;5121427;27;20226;-86
2022/01/09 09:45:06;;;;;;;9.13;8.83;;;3.10;99.90;;;;;;5109937;28;20263;-85
2022/01/09 09:47:36;;;;;;;8.77;8.53;;;3.20;99.90;;;;;;5105610;28;20236;-86
2022/01/09 09:50:06;;;;;;;9.17;8.87;;;3.10;99.90;;;;;;5098140;28;20300;-85
2022/01/09 09:52:34;;;;;;;9.27;8.97;;;3.10;99.90;;;;;;5083184;28;20253;-86
2022/01/09 09:55:02;;;;;;;9.07;8.77;;;3.10;99.90;;;;;;5084424;28;20230;-86
2022/01/09 09:57:31;;;;;;;9.00;8.70;;;3.10;99.90;;;;;;5084017;28;20234;-86
2022/01/09 10:00:10;;;;;;;9.10;8.80;;;3.10;99.90;;;;;;5083279;28;20245;-85
2022/01/09 10:02:49;;;;;;;9.30;9.00;;;3.10;99.90;;;;;;5093544;28;20306;-85
2022/01/09 10:05:19;;;;;;;9.60;9.30;;;3.20;99.90;;;;;;5102668;28;20229;-83
2022/01/09 10:07:48;;;;;;;9.47;9.17;;;3.20;99.90;;;;;;5101694;28;20289;-84
2022/01/09 10:10:25;;;;;;;9.50;9.20;;;3.20;99.90;;;;;;5101623;28;20237;-83
2022/01/09 10:13:06;;;;;;;9.63;9.33;;;3.20;99.90;;;;;;5107408;28;20275;-82
2022/01/09 10:15:54;;;;;;;9.60;9.30;;;3.20;99.90;;;;;;5107039;28;20269;-84
2022/01/09 10:21:51;;;;;;;9.33;9.03;;;3.20;99.90;;;;;;5106329;28;20240;-83
2022/01/09 10:24:22;;;;;;;9.40;9.10;;;3.30;99.90;;;;;;5106475;28;20229;-85
2022/01/09 10:26:53;;;;;;;9.50;9.20;;;3.30;99.90;;;;;;5105389;28;20224;-85
2022/01/09 10:29:21;;;;;;;9.50;9.20;;;3.30;99.90;;;;;;5106531;28;20241;-85
2022/01/09 10:31:52;;;;;;;9.50;9.20;;;3.30;99.90;;;;;;5103690;28;20232;-85
2022/01/09 10:34:20;;;;;;;9.47;9.17;;;3.30;99.90;;;;;;5105074;28;20225;-85
2022/01/09 10:36:51;;;;;;;9.30;9.00;;;3.30;99.90;;;;;;5104870;28;20229;-85
2022/01/09 10:39:21;;;;;;;9.17;8.87;;;3.30;99.90;;;;;;5105254;28;20287;-85
2022/01/09 10:41:58;;;;;;;9.20;8.90;;;3.40;99.90;;;;;;5104184;28;20210;-85
2022/01/09 10:44:37;;;;;;;9.17;8.87;;;3.40;99.90;;;;;;5103916;28;20225;-85
2022/01/09 10:47:14;;;;;;;9.20;8.90;;;3.40;99.90;;;;;;5104595;28;20233;-84
2022/01/09 10:49:52;;;;;;;9.40;9.10;;;3.40;99.90;;;;;;5109760;28;20236;-85
2022/01/09 10:52:31;;;;;;;9.60;9.30;;;3.40;99.90;;;;;;5117908;27;20225;-85
2022/01/09 10:55:06;;;;;;;8.87;8.57;;;3.40;99.90;;;;;;5106807;28;20225;-83
2022/01/09 10:57:37;;;;;;;9.17;8.87;;;3.30;99.90;;;;;;5106781;28;20225;-83
2022/01/09 11:00:17;;;;;;;9.00;8.70;;;3.30;99.90;;;;;;5105016;28;20244;-83
2022/01/09 11:02:46;;;;;;;8.87;8.60;;;3.30;99.90;;;;;;5103660;28;20773;-82
2022/01/09 11:05:14;;;;;;;9.10;8.80;;;3.20;99.90;;;;;;5104672;28;21048;-83
2022/01/09 11:07:42;;;;;;;8.83;8.60;;;3.20;99.90;;;;;;5103620;28;20278;-83
2022/01/09 11:10:12;;;;;;;9.10;8.80;;;3.20;99.90;;;;;;5104314;28;20239;-83
2022/01/09 11:12:47;;;;;;;9.20;8.90;;;3.20;99.90;;;;;;5101463;28;20229;-83
2022/01/09 11:15:22;;;;;;;8.80;8.53;;;3.10;99.90;;;;;;5095014;28;20288;-83
2022/01/09 11:18:01;;;;;;;8.97;8.67;;;3.10;99.90;;;;;;5104903;28;20289;-82
2022/01/09 11:20:29;;;;;;;9.00;8.70;;;3.10;99.90;;;;;;5114277;28;20303;-83
2022/01/09 11:22:59;;;;;;;9.00;8.70;;;3.10;99.90;;;;;;5106375;28;20548;-83
2022/01/09 11:25:37;;;;;;;9.00;8.70;;;3.20;99.90;;;;;;5105157;28;20232;-82
2022/01/09 11:28:14;;;;;;;8.93;8.63;;;3.20;99.90;;;;;;5104801;28;20237;-82
2022/01/09 11:31:02;;;;;;;9.00;8.70;;;3.20;99.90;;;;;;5106255;28;20225;-82
2022/01/09 11:34:06;;;;;;;8.80;8.50;;;3.20;99.90;;;;;;5109831;28;20244;-83
2022/01/09 11:36:45;;;;;;;8.87;8.57;;;3.30;99.90;;;;;;5110094;28;20217;-82
2022/01/09 11:39:23;;;;;;;9.03;8.73;;;3.30;99.90;;;;;;5099702;28;20232;-82
2022/01/09 11:42:11;;;;;;;9.00;8.70;;;3.30;99.90;;;;;;5081561;28;20261;-83
2022/01/09 11:44:50;;;;;;;9.00;8.70;;;3.30;99.90;;;;;;5082113;28;20230;-82
2022/01/09 11:47:19;;;;;;;9.00;8.70;;;3.30;99.90;;;;;;5081911;28;20280;-85
2022/01/09 11:50:18;;;;;;;8.93;8.63;;;3.30;99.90;;;;;;5082026;28;20238;-81
2022/01/09 11:53:02;;;;;;;9.10;8.80;;;3.30;99.90;;;;;;5082142;28;20238;-84
2022/01/09 11:55:41;;;;;;;9.20;8.90;;;3.30;99.90;;;;;;5080755;28;20227;-82
2022/01/09 11:58:11;;;;;;;9.20;8.90;;;3.40;99.90;;;;;;5090211;28;20210;-81
2022/01/09 12:00:49;;;;;;;9.20;8.90;;;3.40;99.90;;;;;;5095321;28;20226;-83
2022/01/09 12:03:35;;;;;;;9.23;8.93;;;3.40;99.90;;;;;;5087427;28;20265;-81
2022/01/09 12:06:16;;;;;;;8.73;8.53;;;3.40;99.90;;;;;;5083866;28;20225;-81
2022/01/09 12:09:09;;;;;;;9.00;8.70;;;3.50;99.90;;;;;;5084495;28;20230;-81
2022/01/09 12:12:12;;;;;;;9.37;9.07;;;3.50;99.90;;;;;;5083283;28;20230;-82
2022/01/09 12:15:03;;;;;;;9.10;8.80;;;3.60;99.90;;;;;;5082623;28;20237;-83
2022/01/09 12:17:48;;;;;;;9.27;8.97;;;3.60;99.90;;;;;;5080416;28;20230;-83
2022/01/09 12:20:37;;;;;;;9.70;9.40;;;3.70;99.90;;;;;;5084554;28;20230;-85
2022/01/09 12:23:11;;;;;;;9.50;9.20;;;3.70;99.90;;;;;;5083919;28;20253;-82
2022/01/09 12:26:00;;;;;;;9.67;9.37;;;3.70;99.90;;;;;;5085352;28;20233;-82
2022/01/09 12:28:46;;;;;;;9.70;9.40;;;3.80;99.90;;;;;;5084494;28;20234;-84
2022/01/09 12:31:35;;;;;;;9.60;9.30;;;3.80;99.90;;;;;;5083461;28;20229;-82
2022/01/09 12:34:12;;;;;;;9.60;9.30;;;3.80;99.90;;;;;;5085125;28;20288;-82
2022/01/09 12:36:43;;;;;;;9.67;9.37;;;3.80;99.90;;;;;;5086163;28;20241;-83
2022/01/09 12:39:21;;;;;;;9.70;9.40;;;3.80;99.90;;;;;;5087533;28;20256;-83
2022/01/09 12:41:48;;;;;;;9.60;9.30;;;3.80;99.90;;;;;;5085907;28;20234;-83
2022/01/09 12:44:18;;;;;;;9.60;9.30;;;3.80;99.90;;;;;;5086093;28;20252;-83
2022/01/09 12:46:48;;;;;;;9.40;9.10;;;3.80;99.90;;;;;;5085351;28;20273;-83
2022/01/09 12:49:16;;;;;;;9.50;9.20;;;3.80;99.90;;;;;;5084292;28;20229;-83
2022/01/09 12:52:00;;;;;;;9.47;9.17;;;3.80;99.90;;;;;;5084877;28;20237;-84
2022/01/09 12:54:35;;;;;;;9.50;9.20;;;3.80;99.90;;;;;;5084589;28;20234;-83
2022/01/09 12:57:04;;;;;;;9.60;9.30;;;3.80;99.90;;;;;;5084884;28;20229;-83
2022/01/09 12:59:32;;;;;;;9.37;9.07;;;3.80;99.90;;;;;;5084134;28;20230;-83
2022/01/09 13:02:02;;;;;;;9.17;8.87;;;3.80;99.90;;;;;;5138713;22;20266;-84
2022/01/09 13:04:36;;;;;;;9.13;8.83;;;3.90;99.90;;;;;;5123263;28;20236;-83
2022/01/09 13:07:06;;;;;;;9.00;8.70;;;4.00;99.90;;;;;;5125259;28;20235;-83
2022/01/09 13:09:35;;;;;;;8.03;7.83;;;4.10;99.90;;;;;;5123169;28;20225;-85
2022/01/09 13:12:05;;;;;;;8.47;8.27;;;4.20;99.90;;;;;;5123374;28;20232;-83
2022/01/09 13:14:34;;;;;;;8.57;8.37;;;4.40;99.90;;;;;;5121633;27;20228;-86
2022/01/09 13:17:04;;;;;;;8.20;8.00;;;4.50;99.90;;;;;;5121457;27;20319;-83
2022/01/09 13:19:31;;;;;;;8.43;8.23;;;4.50;99.90;;;;;;5122044;28;20229;-84
2022/01/09 13:22:02;;;;;;;8.50;8.30;;;4.50;99.90;;;;;;5121800;28;20240;-86